sensor_id;sensor_type;location;lat;lon;timestamp;temperature;humidity
38798;SHT11;24546;52.240;16.826;2022-12-24T00:03:17;7.30;99.90
38798;SHT11;24546;52.240;16.826;2022-12-24T00:08:19;7.40;99.90
38798;SHT11;24546;52.240;16.826;2022-12-24T00:13:20;7.40;99.90
38798;SHT11;24546;52.240;16.826;2022-12-24T00:18:21;7.40;99.90
38798;SHT11;24546;52.240;16.826;2022-12-24T00:23:22;7.40;99.90
38798;SHT11;24546;52.240;16.826;2022-12-24T00:28:23;7.40;99.90
38798;SHT11;24546;52.240;16.826;2022-12-24T00:33:26;7.30;99.90
38798;SHT11;24546;52.240;16.826;2022-12-24T00:38:27;7.10;99.90
38798;SHT11;24546;52.240;16.826;2022-12-24T00:43:29;7.10;99.90
38798;SHT11;24546;52.240;16.826;2022-12-24T00:48:30;7.00;99.90
38798;SHT11;24546;52.240;16.826;2022-12-24T00:53:31;7.10;99.90
38798;SHT11;24546;52.240;16.826;2022-12-24T00:58:33;6.90;99.90
38798;SHT11;24546;52.240;16.826;2022-12-24T01:03:34;6.70;99.90
38798;SHT11;24546;52.240;16.826;2022-12-24T01:08:36;6.90;99.90
38798;SHT11;24546;52.240;16.826;2022-12-24T01:13:37;6.90;99.90
38798;SHT11;24546;52.240;16.826;2022-12-24T01:18:38;7.00;99.90
38798;SHT11;24546;52.240;16.826;2022-12-24T01:23:39;7.00;99.90
38798;SHT11;24546;52.240;16.826;2022-12-24T01:28:41;7.10;99.90
38798;SHT11;24546;52.240;16.826;2022-12-24T01:33:43;7.00;99.90
38798;SHT11;24546;52.240;16.826;2022-12-24T01:38:45;6.90;99.90
38798;SHT11;24546;52.240;16.826;2022-12-24T01:43:46;6.90;99.90
38798;SHT11;24546;52.240;16.826;2022-12-24T01:48:57;6.90;99.90
38798;SHT11;24546;52.240;16.826;2022-12-24T01:54:14;6.70;99.90
38798;SHT11;24546;52.240;16.826;2022-12-24T01:59:17;6.60;99.90
38798;SHT11;24546;52.240;16.826;2022-12-24T02:04:43;6.70;99.90
38798;SHT11;24546;52.240;16.826;2022-12-24T02:09:49;6.70;99.90
38798;SHT11;24546;52.240;16.826;2022-12-24T02:14:53;6.70;99.90
38798;SHT11;24546;52.240;16.826;2022-12-24T02:30:47;6.50;99.90
38798;SHT11;24546;52.240;16.826;2022-12-24T02:35:58;6.60;99.90
38798;SHT11;24546;52.240;16.826;2022-12-24T02:41:17;6.50;99.90
38798;SHT11;24546;52.240;16.826;2022-12-24T02:46:24;6.70;99.90
38798;SHT11;24546;52.240;16.826;2022-12-24T02:51:26;6.60;99.90
38798;SHT11;24546;52.240;16.826;2022-12-24T02:56:48;6.50;99.90
38798;SHT11;24546;52.240;16.826;2022-12-24T03:02:13;6.50;99.90
38798;SHT11;24546;52.240;16.826;2022-12-24T03:07:32;6.60;99.90
38798;SHT11;24546;52.240;16.826;2022-12-24T03:12:43;6.60;99.90
38798;SHT11;24546;52.240;16.826;2022-12-24T03:17:47;6.60;99.90
38798;SHT11;24546;52.240;16.826;2022-12-24T03:22:49;6.50;99.90
38798;SHT11;24546;52.240;16.826;2022-12-24T03:27:50;6.40;99.90
38798;SHT11;24546;52.240;16.826;2022-12-24T03:32:52;6.40;99.90
38798;SHT11;24546;52.240;16.826;2022-12-24T03:37:53;6.30;99.90
38798;SHT11;24546;52.240;16.826;2022-12-24T03:42:54;6.30;99.90
38798;SHT11;24546;52.240;16.826;2022-12-24T03:47:56;6.40;99.90
38798;SHT11;24546;52.240;16.826;2022-12-24T03:52:57;6.10;99.90
38798;SHT11;24546;52.240;16.826;2022-12-24T03:57:58;6.30;99.90
38798;SHT11;24546;52.240;16.826;2022-12-24T04:02:59;6.40;99.90
38798;SHT11;24546;52.240;16.826;2022-12-24T04:08:01;6.30;99.90
38798;SHT11;24546;52.240;16.826;2022-12-24T04:13:02;6.40;99.90
38798;SHT11;24546;52.240;16.826;2022-12-24T04:18:03;6.30;99.90
38798;SHT11;24546;52.240;16.826;2022-12-24T04:23:04;6.20;99.90
38798;SHT11;24546;52.240;16.826;2022-12-24T04:28:05;6.20;99.90
38798;SHT11;24546;52.240;16.826;2022-12-24T04:33:07;6.20;99.90
38798;SHT11;24546;52.240;16.826;2022-12-24T04:38:09;6.30;99.90
38798;SHT11;24546;52.240;16.826;2022-12-24T04:43:10;6.30;99.90
38798;SHT11;24546;52.240;16.826;2022-12-24T04:48:12;6.10;99.90
38798;SHT11;24546;52.240;16.826;2022-12-24T04:53:13;6.20;99.90
38798;SHT11;24546;52.240;16.826;2022-12-24T04:58:14;6.30;99.90
38798;SHT11;24546;52.240;16.826;2022-12-24T05:03:15;6.20;99.90
38798;SHT11;24546;52.240;16.826;2022-12-24T05:08:16;6.20;99.90
38798;SHT11;24546;52.240;16.826;2022-12-24T05:13:17;6.20;99.90
38798;SHT11;24546;52.240;16.826;2022-12-24T05:18:19;6.10;99.90
38798;SHT11;24546;52.240;16.826;2022-12-24T05:23:22;6.00;99.90
38798;SHT11;24546;52.240;16.826;2022-12-24T05:28:42;6.10;99.90
38798;SHT11;24546;52.240;16.826;2022-12-24T05:33:43;6.10;99.90
38798;SHT11;24546;52.240;16.826;2022-12-24T05:38:44;6.00;99.90
38798;SHT11;24546;52.240;16.826;2022-12-24T05:43:45;6.00;99.90
38798;SHT11;24546;52.240;16.826;2022-12-24T05:48:47;6.20;99.90
38798;SHT11;24546;52.240;16.826;2022-12-24T05:53:50;6.10;99.90
38798;SHT11;24546;52.240;16.826;2022-12-24T05:58:52;6.30;99.90
38798;SHT11;24546;52.240;16.826;2022-12-24T06:03:56;6.30;99.90
38798;SHT11;24546;52.240;16.826;2022-12-24T06:08:57;6.20;99.90
38798;SHT11;24546;52.240;16.826;2022-12-24T06:13:58;6.20;99.90
38798;SHT11;24546;52.240;16.826;2022-12-24T06:18:59;6.00;99.90
38798;SHT11;24546;52.240;16.826;2022-12-24T06:24:00;6.20;99.90
38798;SHT11;24546;52.240;16.826;2022-12-24T06:29:01;6.20;99.90
38798;SHT11;24546;52.240;16.826;2022-12-24T06:34:02;6.30;99.90
38798;SHT11;24546;52.240;16.826;2022-12-24T06:39:04;6.20;99.90
38798;SHT11;24546;52.240;16.826;2022-12-24T06:44:05;6.30;99.90
38798;SHT11;24546;52.240;16.826;2022-12-24T06:49:06;6.10;99.90
38798;SHT11;24546;52.240;16.826;2022-12-24T06:54:07;6.20;99.90
38798;SHT11;24546;52.240;16.826;2022-12-24T06:59:08;6.20;99.90
38798;SHT11;24546;52.240;16.826;2022-12-24T07:04:10;6.20;99.90
38798;SHT11;24546;52.240;16.826;2022-12-24T07:09:12;6.30;99.90
38798;SHT11;24546;52.240;16.826;2022-12-24T07:14:14;6.40;99.90
38798;SHT11;24546;52.240;16.826;2022-12-24T07:19:15;6.30;99.90
38798;SHT11;24546;52.240;16.826;2022-12-24T07:24:17;6.40;99.90
38798;SHT11;24546;52.240;16.826;2022-12-24T07:29:19;6.50;99.90
38798;SHT11;24546;52.240;16.826;2022-12-24T07:34:21;6.30;99.90
38798;SHT11;24546;52.240;16.826;2022-12-24T07:39:22;6.50;99.90
38798;SHT11;24546;52.240;16.826;2022-12-24T07:44:23;6.60;99.90
38798;SHT11;24546;52.240;16.826;2022-12-24T07:49:24;6.40;99.90
38798;SHT11;24546;52.240;16.826;2022-12-24T07:54:25;6.60;99.90
38798;SHT11;24546;52.240;16.826;2022-12-24T07:59:26;6.40;99.90
38798;SHT11;24546;52.240;16.826;2022-12-24T08:04:32;6.40;99.90
38798;SHT11;24546;52.240;16.826;2022-12-24T08:09:39;6.30;99.90
38798;SHT11;24546;52.240;16.826;2022-12-24T08:14:40;6.50;99.90
38798;SHT11;24546;52.240;16.826;2022-12-24T08:19:41;6.40;99.90
38798;SHT11;24546;52.240;16.826;2022-12-24T08:24:42;6.30;99.90
38798;SHT11;24546;52.240;16.826;2022-12-24T08:29:45;6.30;99.90
38798;SHT11;24546;52.240;16.826;2022-12-24T08:34:46;6.50;99.90
38798;SHT11;24546;52.240;16.826;2022-12-24T08:39:47;6.60;99.90
38798;SHT11;24546;52.240;16.826;2022-12-24T08:44:48;6.60;99.90
38798;SHT11;24546;52.240;16.826;2022-12-24T08:49:49;6.60;99.90
38798;SHT11;24546;52.240;16.826;2022-12-24T08:54:50;6.70;99.90
38798;SHT11;24546;52.240;16.826;2022-12-24T08:59:51;6.70;99.90
38798;SHT11;24546;52.240;16.826;2022-12-24T09:04:52;6.80;99.90
38798;SHT11;24546;52.240;16.826;2022-12-24T09:09:53;6.60;99.90
38798;SHT11;24546;52.240;16.826;2022-12-24T09:14:54;6.70;99.90
38798;SHT11;24546;52.240;16.826;2022-12-24T09:19:55;6.60;99.90
38798;SHT11;24546;52.240;16.826;2022-12-24T09:24:56;6.70;99.90
38798;SHT11;24546;52.240;16.826;2022-12-24T09:29:57;6.90;99.90
38798;SHT11;24546;52.240;16.826;2022-12-24T09:34:59;6.80;99.90
38798;SHT11;24546;52.240;16.826;2022-12-24T09:40:00;6.90;99.90
38798;SHT11;24546;52.240;16.826;2022-12-24T09:45:17;7.00;99.90
38798;SHT11;24546;52.240;16.826;2022-12-24T09:55:36;7.10;99.90
38798;SHT11;24546;52.240;16.826;2022-12-24T10:00:41;7.20;99.90
38798;SHT11;24546;52.240;16.826;2022-12-24T10:05:55;7.20;99.90
38798;SHT11;24546;52.240;16.826;2022-12-24T10:11:22;7.10;99.90
38798;SHT11;24546;52.240;16.826;2022-12-24T10:17:18;7.10;99.90
38798;SHT11;24546;52.240;16.826;2022-12-24T10:27:01;7.10;99.90
38798;SHT11;24546;52.240;16.826;2022-12-24T10:37:19;7.20;99.90
38798;SHT11;24546;52.240;16.826;2022-12-24T10:42:25;7.20;99.90
38798;SHT11;24546;52.240;16.826;2022-12-24T10:47:28;7.10;99.90
38798;SHT11;24546;52.240;16.826;2022-12-24T10:52:33;7.30;99.90
38798;SHT11;24546;52.240;16.826;2022-12-24T10:57:35;7.40;99.90
38798;SHT11;24546;52.240;16.826;2022-12-24T11:02:38;7.50;99.90
38798;SHT11;24546;52.240;16.826;2022-12-24T11:07:39;7.50;99.90
38798;SHT11;24546;52.240;16.826;2022-12-24T11:12:46;7.50;99.90
38798;SHT11;24546;52.240;16.826;2022-12-24T11:17:53;7.60;99.90
38798;SHT11;24546;52.240;16.826;2022-12-24T11:22:55;7.70;99.90
38798;SHT11;24546;52.240;16.826;2022-12-24T11:28:17;7.80;99.90
38798;SHT11;24546;52.240;16.826;2022-12-24T11:33:20;7.70;99.90
38798;SHT11;24546;52.240;16.826;2022-12-24T11:38:24;7.80;99.90
38798;SHT11;24546;52.240;16.826;2022-12-24T11:43:27;7.80;99.90
38798;SHT11;24546;52.240;16.826;2022-12-24T11:48:44;7.80;99.90
38798;SHT11;24546;52.240;16.826;2022-12-24T11:54:21;7.80;99.90
38798;SHT11;24546;52.240;16.826;2022-12-24T11:59:41;7.80;99.90
38798;SHT11;24546;52.240;16.826;2022-12-24T12:04:45;7.80;99.90
38798;SHT11;24546;52.240;16.826;2022-12-24T12:09:58;7.90;99.90
38798;SHT11;24546;52.240;16.826;2022-12-24T12:31:04;7.70;99.90
38798;SHT11;24546;52.240;16.826;2022-12-24T12:36:11;7.80;99.90
38798;SHT11;24546;52.240;16.826;2022-12-24T12:56:51;7.60;99.90
38798;SHT11;24546;52.240;16.826;2022-12-24T13:08:14;7.80;99.90
38798;SHT11;24546;52.240;16.826;2022-12-24T13:19:03;7.90;99.90
38798;SHT11;24546;52.240;16.826;2022-12-24T13:34:35;8.00;99.90
38798;SHT11;24546;52.240;16.826;2022-12-24T13:40:12;8.00;99.90
38798;SHT11;24546;52.240;16.826;2022-12-24T13:45:47;8.00;99.90
38798;SHT11;24546;52.240;16.826;2022-12-24T13:50:52;7.90;99.90
38798;SHT11;24546;52.240;16.826;2022-12-24T13:55:56;7.90;99.90
38798;SHT11;24546;52.240;16.826;2022-12-24T14:01:03;8.00;99.90
38798;SHT11;24546;52.240;16.826;2022-12-24T14:06:08;7.90;99.90
38798;SHT11;24546;52.240;16.826;2022-12-24T14:11:18;7.90;99.90
38798;SHT11;24546;52.240;16.826;2022-12-24T14:16:28;7.90;99.90
38798;SHT11;24546;52.240;16.826;2022-12-24T14:21:33;7.90;99.90
38798;SHT11;24546;52.240;16.826;2022-12-24T14:26:44;7.90;99.90
38798;SHT11;24546;52.240;16.826;2022-12-24T14:32:12;7.90;99.90
38798;SHT11;24546;52.240;16.826;2022-12-24T14:37:14;7.90;99.90
38798;SHT11;24546;52.240;16.826;2022-12-24T14:42:33;7.80;99.90
38798;SHT11;24546;52.240;16.826;2022-12-24T15:03:30;7.70;99.90
38798;SHT11;24546;52.240;16.826;2022-12-24T15:08:52;7.70;99.90
38798;SHT11;24546;52.240;16.826;2022-12-24T15:13:56;7.70;99.90
38798;SHT11;24546;52.240;16.826;2022-12-24T15:19:01;7.70;99.90
38798;SHT11;24546;52.240;16.826;2022-12-24T15:24:04;7.70;99.90
38798;SHT11;24546;52.240;16.826;2022-12-24T15:29:21;7.70;99.90
38798;SHT11;24546;52.240;16.826;2022-12-24T15:34:40;7.60;99.90
38798;SHT11;24546;52.240;16.826;2022-12-24T15:39:41;7.70;99.90
38798;SHT11;24546;52.240;16.826;2022-12-24T15:49:50;7.70;99.90
38798;SHT11;24546;52.240;16.826;2022-12-24T15:54:52;7.60;99.90
38798;SHT11;24546;52.240;16.826;2022-12-24T15:59:56;7.70;99.90
38798;SHT11;24546;52.240;16.826;2022-12-24T16:05:30;7.70;99.90
38798;SHT11;24546;52.240;16.826;2022-12-24T16:10:45;7.60;99.90
38798;SHT11;24546;52.240;16.826;2022-12-24T16:20:54;7.60;99.90
38798;SHT11;24546;52.240;16.826;2022-12-24T16:25:57;7.70;99.90
38798;SHT11;24546;52.240;16.826;2022-12-24T16:30:58;7.60;99.90
38798;SHT11;24546;52.240;16.826;2022-12-24T16:35:59;7.60;99.90
38798;SHT11;24546;52.240;16.826;2022-12-24T16:41:00;7.60;99.90
38798;SHT11;24546;52.240;16.826;2022-12-24T16:46:05;7.60;99.90
38798;SHT11;24546;52.240;16.826;2022-12-24T16:51:06;7.60;99.90
38798;SHT11;24546;52.240;16.826;2022-12-24T16:56:07;7.60;99.90
38798;SHT11;24546;52.240;16.826;2022-12-24T17:01:09;7.50;99.90
38798;SHT11;24546;52.240;16.826;2022-12-24T17:06:10;7.50;99.90
38798;SHT11;24546;52.240;16.826;2022-12-24T17:11:11;7.50;99.90
38798;SHT11;24546;52.240;16.826;2022-12-24T17:16:12;7.50;99.90
38798;SHT11;24546;52.240;16.826;2022-12-24T17:21:13;7.50;99.90
38798;SHT11;24546;52.240;16.826;2022-12-24T17:26:14;7.40;99.90
38798;SHT11;24546;52.240;16.826;2022-12-24T17:31:15;7.50;99.90
38798;SHT11;24546;52.240;16.826;2022-12-24T17:36:17;7.50;99.90
38798;SHT11;24546;52.240;16.826;2022-12-24T17:41:19;7.50;99.90
38798;SHT11;24546;52.240;16.826;2022-12-24T17:46:21;7.40;99.90
38798;SHT11;24546;52.240;16.826;2022-12-24T17:51:22;7.40;99.90
38798;SHT11;24546;52.240;16.826;2022-12-24T17:56:24;7.40;99.90
38798;SHT11;24546;52.240;16.826;2022-12-24T18:01:26;7.40;99.90
38798;SHT11;24546;52.240;16.826;2022-12-24T18:06:30;7.40;99.90
38798;SHT11;24546;52.240;16.826;2022-12-24T18:11:33;7.40;99.90
38798;SHT11;24546;52.240;16.826;2022-12-24T18:16:37;7.40;99.90
38798;SHT11;24546;52.240;16.826;2022-12-24T18:21:39;7.50;99.90
38798;SHT11;24546;52.240;16.826;2022-12-24T18:26:43;7.40;99.90
38798;SHT11;24546;52.240;16.826;2022-12-24T18:31:45;7.40;99.90
38798;SHT11;24546;52.240;16.826;2022-12-24T18:36:46;7.30;99.90
38798;SHT11;24546;52.240;16.826;2022-12-24T18:41:47;7.30;99.90
38798;SHT11;24546;52.240;16.826;2022-12-24T18:46:49;7.30;99.90
38798;SHT11;24546;52.240;16.826;2022-12-24T18:51:50;7.40;99.90
38798;SHT11;24546;52.240;16.826;2022-12-24T18:56:51;7.40;99.90
38798;SHT11;24546;52.240;16.826;2022-12-24T19:01:52;7.40;99.90
38798;SHT11;24546;52.240;16.826;2022-12-24T19:06:53;7.40;99.90
38798;SHT11;24546;52.240;16.826;2022-12-24T19:11:54;7.30;99.90
38798;SHT11;24546;52.240;16.826;2022-12-24T19:16:55;7.40;99.90
38798;SHT11;24546;52.240;16.826;2022-12-24T19:21:56;7.30;99.90
38798;SHT11;24546;52.240;16.826;2022-12-24T19:26:57;7.30;99.90
38798;SHT11;24546;52.240;16.826;2022-12-24T19:31:58;7.40;99.90
38798;SHT11;24546;52.240;16.826;2022-12-24T19:37:00;7.40;99.90
38798;SHT11;24546;52.240;16.826;2022-12-24T19:42:01;7.30;99.90
38798;SHT11;24546;52.240;16.826;2022-12-24T19:47:02;7.40;99.90
38798;SHT11;24546;52.240;16.826;2022-12-24T19:52:03;7.30;99.90
38798;SHT11;24546;52.240;16.826;2022-12-24T19:57:04;7.30;99.90
38798;SHT11;24546;52.240;16.826;2022-12-24T20:02:07;7.30;99.90
38798;SHT11;24546;52.240;16.826;2022-12-24T20:07:09;7.30;99.90
38798;SHT11;24546;52.240;16.826;2022-12-24T20:12:10;7.30;99.90
38798;SHT11;24546;52.240;16.826;2022-12-24T20:17:11;7.30;99.90
38798;SHT11;24546;52.240;16.826;2022-12-24T20:22:13;7.30;99.90
38798;SHT11;24546;52.240;16.826;2022-12-24T20:27:15;7.30;99.90
38798;SHT11;24546;52.240;16.826;2022-12-24T20:32:16;7.30;99.90
38798;SHT11;24546;52.240;16.826;2022-12-24T20:37:17;7.30;99.90
38798;SHT11;24546;52.240;16.826;2022-12-24T20:42:18;7.30;99.90
38798;SHT11;24546;52.240;16.826;2022-12-24T20:47:19;7.30;99.90
38798;SHT11;24546;52.240;16.826;2022-12-24T20:52:20;7.30;99.90
38798;SHT11;24546;52.240;16.826;2022-12-24T20:57:21;7.30;99.90
38798;SHT11;24546;52.240;16.826;2022-12-24T21:02:22;7.30;99.90
38798;SHT11;24546;52.240;16.826;2022-12-24T21:07:23;7.30;99.90
38798;SHT11;24546;52.240;16.826;2022-12-24T21:12:24;7.30;99.90
38798;SHT11;24546;52.240;16.826;2022-12-24T21:17:44;7.30;99.90
38798;SHT11;24546;52.240;16.826;2022-12-24T21:22:46;7.20;99.90
38798;SHT11;24546;52.240;16.826;2022-12-24T21:27:52;7.30;99.90
38798;SHT11;24546;52.240;16.826;2022-12-24T21:32:55;7.20;99.90
38798;SHT11;24546;52.240;16.826;2022-12-24T21:37:56;7.30;99.90
38798;SHT11;24546;52.240;16.826;2022-12-24T21:42:57;7.20;99.90
38798;SHT11;24546;52.240;16.826;2022-12-24T21:47:58;7.20;99.90
38798;SHT11;24546;52.240;16.826;2022-12-24T21:53:19;7.30;99.90
38798;SHT11;24546;52.240;16.826;2022-12-24T21:58:39;7.30;99.90
38798;SHT11;24546;52.240;16.826;2022-12-24T22:03:41;7.30;99.90
38798;SHT11;24546;52.240;16.826;2022-12-24T22:08:42;7.30;99.90
38798;SHT11;24546;52.240;16.826;2022-12-24T22:14:01;7.20;99.90
38798;SHT11;24546;52.240;16.826;2022-12-24T22:19:03;7.20;99.90
38798;SHT11;24546;52.240;16.826;2022-12-24T22:24:05;7.20;99.90
38798;SHT11;24546;52.240;16.826;2022-12-24T22:29:06;7.30;99.90
38798;SHT11;24546;52.240;16.826;2022-12-24T22:34:07;7.20;99.90
38798;SHT11;24546;52.240;16.826;2022-12-24T22:39:09;7.30;99.90
38798;SHT11;24546;52.240;16.826;2022-12-24T22:44:09;7.30;99.90
38798;SHT11;24546;52.240;16.826;2022-12-24T22:49:11;7.30;99.90
38798;SHT11;24546;52.240;16.826;2022-12-24T22:54:12;7.30;99.90
38798;SHT11;24546;52.240;16.826;2022-12-24T22:59:13;7.30;99.90
38798;SHT11;24546;52.240;16.826;2022-12-24T23:04:14;7.30;99.90
38798;SHT11;24546;52.240;16.826;2022-12-24T23:09:15;7.20;99.90
38798;SHT11;24546;52.240;16.826;2022-12-24T23:14:19;7.20;99.90
38798;SHT11;24546;52.240;16.826;2022-12-24T23:19:39;7.40;99.90
38798;SHT11;24546;52.240;16.826;2022-12-24T23:24:40;7.30;99.90
38798;SHT11;24546;52.240;16.826;2022-12-24T23:29:41;7.50;99.90
38798;SHT11;24546;52.240;16.826;2022-12-24T23:34:42;7.50;99.90
38798;SHT11;24546;52.240;16.826;2022-12-24T23:39:43;7.60;99.90
38798;SHT11;24546;52.240;16.826;2022-12-24T23:44:44;7.70;99.90
38798;SHT11;24546;52.240;16.826;2022-12-24T23:49:45;7.70;99.90
38798;SHT11;24546;52.240;16.826;2022-12-24T23:54:46;7.60;99.90
38798;SHT11;24546;52.240;16.826;2022-12-24T23:59:47;7.50;99.90
